Time;durP1;ratioP1;P1;durP2;ratioP2;P2;SDS_P1;SDS_P2;PMS_P1;PMS_P2;Temp;Humidity;BMP_temperature;BMP_pressure;BME280_temperature;BME280_humidity;BME280_pressure;Samples;Min_cycle;Max_cycle;Signal;HPM_P1;HPM_P2
2023/05/07 00:01:53;;;;;;;32.42;20.42;;;;;;;16.97;100.00;98802.13;5060171;28;20070;-80
2023/05/07 00:04:38;;;;;;;33.05;22.05;;;;;;;16.99;100.00;98799.25;5062201;28;20135;-78
2023/05/07 00:07:22;;;;;;;34.70;22.75;;;;;;;17.01;100.00;98799.00;5062071;28;20071;-76
2023/05/07 00:10:07;;;;;;;37.17;22.45;;;;;;;16.95;100.00;98796.25;5061234;28;20039;-79
2023/05/07 00:12:51;;;;;;;34.70;22.73;;;;;;;16.92;100.00;98796.75;5056349;28;20114;-77
2023/05/07 00:15:35;;;;;;;36.03;22.77;;;;;;;16.96;100.00;98799.69;5057246;28;20044;-77
2023/05/07 00:18:22;;;;;;;30.95;21.63;;;;;;;17.03;100.00;98802.22;5062852;28;20089;-78
2023/05/07 00:21:06;;;;;;;33.03;21.85;;;;;;;17.02;100.00;98805.91;5064610;28;20043;-79
2023/05/07 00:23:50;;;;;;;33.15;22.70;;;;;;;17.04;100.00;98806.47;5062553;28;20039;-80
2023/05/07 00:26:34;;;;;;;33.03;22.13;;;;;;;17.05;100.00;98813.38;5061331;28;20394;-78
2023/05/07 00:29:18;;;;;;;35.03;22.67;;;;;;;17.00;100.00;98806.19;5066677;28;20034;-78
2023/05/07 00:32:02;;;;;;;36.00;23.75;;;;;;;16.95;100.00;98804.22;5061601;28;20063;-77
2023/05/07 00:34:46;;;;;;;39.38;24.27;;;;;;;16.87;100.00;98807.25;5060161;28;20498;-78
2023/05/07 00:37:30;;;;;;;37.80;23.02;;;;;;;16.89;100.00;98805.16;5063137;28;20071;-79
2023/05/07 00:40:15;;;;;;;34.58;23.17;;;;;;;16.92;100.00;98804.69;5061090;28;20185;-78
2023/05/07 00:42:59;;;;;;;38.45;24.80;;;;;;;16.89;100.00;98810.47;5065166;28;20042;-78
2023/05/07 00:45:43;;;;;;;37.63;23.15;;;;;;;16.88;100.00;98808.84;5066408;28;20067;-77
2023/05/07 00:48:27;;;;;;;35.40;22.23;;;;;;;16.87;100.00;98807.25;5062480;28;20547;-78
2023/05/07 00:51:11;;;;;;;36.22;23.00;;;;;;;16.76;100.00;98806.28;5063395;28;20308;-78
2023/05/07 00:53:56;;;;;;;32.20;21.50;;;;;;;16.79;100.00;98810.31;5063785;28;20453;-79
2023/05/07 00:56:40;;;;;;;35.55;23.13;;;;;;;16.78;100.00;98801.56;5056938;28;20052;-79
2023/05/07 00:59:24;;;;;;;35.00;22.45;;;;;;;16.78;100.00;98808.72;5063108;28;20044;-80
2023/05/07 01:02:09;;;;;;;34.35;22.73;;;;;;;16.72;100.00;98804.38;5066602;28;20094;-80
2023/05/07 01:04:53;;;;;;;34.80;21.85;;;;;;;16.62;100.00;98797.06;5062597;28;20031;-80
2023/05/07 01:07:39;;;;;;;33.88;22.23;;;;;;;16.57;100.00;98803.09;5061739;28;20387;-80
2023/05/07 01:10:24;;;;;;;36.38;21.85;;;;;;;16.59;100.00;98806.28;5066813;28;20141;-81
2023/05/07 01:13:10;;;;;;;33.13;20.27;;;;;;;16.61;100.00;98806.84;5064774;28;20035;-80
2023/05/07 01:15:54;;;;;;;35.90;21.45;;;;;;;16.57;100.00;98792.47;5056929;28;20375;-82
2023/05/07 01:18:38;;;;;;;31.90;20.30;;;;;;;16.55;100.00;98795.38;5062732;28;20048;-79
2023/05/07 01:21:26;;;;;;;37.20;21.95;;;;;;;16.50;100.00;98800.59;5063933;28;20123;-79
2023/05/07 01:24:11;;;;;;;30.15;18.85;;;;;;;16.53;100.00;98802.75;5061472;28;20043;-80
2023/05/07 01:26:55;;;;;;;33.00;19.92;;;;;;;16.56;100.00;98801.47;5059579;28;20068;-81
2023/05/07 01:29:39;;;;;;;35.30;20.67;;;;;;;16.56;100.00;98801.47;5064750;28;20034;-80
2023/05/07 01:32:32;;;;;;;35.20;21.63;;;;;;;16.59;100.00;98803.66;5059242;28;22180;-80
2023/05/07 01:35:22;;;;;;;33.33;20.37;;;;;;;16.67;100.00;98808.53;5061371;28;20109;-79
2023/05/07 01:38:08;;;;;;;32.97;20.33;;;;;;;16.65;100.00;98799.25;5060767;28;20095;-79
2023/05/07 01:40:53;;;;;;;31.08;19.85;;;;;;;16.66;100.00;98800.84;5060943;28;20132;-79
2023/05/07 01:43:37;;;;;;;31.38;20.27;;;;;;;16.63;100.00;98802.13;5062467;28;20047;-79
2023/05/07 01:46:21;;;;;;;33.00;19.92;;;;;;;16.76;100.00;98805.50;5060695;28;20032;-80
2023/05/07 01:49:05;;;;;;;33.58;21.25;;;;;;;16.67;100.00;98805.09;5057539;28;20509;-80
2023/05/07 01:51:50;;;;;;;32.42;18.88;;;;;;;16.68;100.00;98812.78;5063869;28;20434;-79
2023/05/07 01:54:34;;;;;;;33.90;19.92;;;;;;;16.70;100.00;98813.38;5060513;28;20490;-79
2023/05/07 01:57:18;;;;;;;33.60;20.02;;;;;;;16.75;100.00;98817.16;5062882;28;20101;-79
2023/05/07 02:00:04;;;;;;;37.58;21.20;;;;;;;16.71;100.00;98814.16;5065636;28;20055;-79
2023/05/07 02:02:48;;;;;;;36.38;21.83;;;;;;;16.74;100.00;98815.53;5062901;28;20098;-79
2023/05/07 02:05:32;;;;;;;33.90;21.63;;;;;;;16.68;100.00;98815.44;5057069;28;20040;-78
2023/05/07 02:08:16;;;;;;;36.70;21.70;;;;;;;16.78;100.00;98828.06;5059250;28;20155;-78
2023/05/07 02:11:00;;;;;;;;;;;;;;;16.83;100.00;98822.84;5061803;28;20047;-78
2023/05/07 02:13:44;;;;;;;40.67;23.70;;;;;;;16.76;100.00;98829.34;5061173;28;20467;-78
2023/05/07 02:16:28;;;;;;;37.20;22.45;;;;;;;16.73;100.00;98821.88;5062568;28;20040;-78
2023/05/07 02:19:12;;;;;;;34.58;21.55;;;;;;;16.76;100.00;98826.72;5057690;28;20456;-77
2023/05/07 02:21:56;;;;;;;39.83;22.05;;;;;;;16.74;100.00;98826.16;5058635;28;20086;-78
2023/05/07 02:24:40;;;;;;;37.90;22.25;;;;;;;16.81;100.00;98834.72;5064536;28;20129;-78
2023/05/07 02:27:24;;;;;;;38.20;21.27;;;;;;;16.90;100.00;98838.59;5062274;28;20141;-78
2023/05/07 02:30:09;;;;;;;38.75;23.17;;;;;;;16.91;100.00;98848.16;5066354;28;20074;-78
2023/05/07 02:32:53;;;;;;;36.40;21.25;;;;;;;16.77;100.00;98845.00;5056436;28;20536;-78
2023/05/07 02:35:37;;;;;;;35.78;20.63;;;;;;;16.73;100.00;98848.41;5062457;28;20043;-78
2023/05/07 02:38:22;;;;;;;39.60;21.88;;;;;;;16.71;100.00;98851.28;5059977;28;20105;-78
2023/05/07 02:41:06;;;;;;;35.65;19.52;;;;;;;16.70;100.00;98845.19;5061305;28;20039;-77
2023/05/07 02:43:49;;;;;;;35.45;18.85;;;;;;;16.74;100.00;98853.44;5060543;28;20048;-77
2023/05/07 02:46:33;;;;;;;31.58;18.23;;;;;;;16.72;100.00;98857.38;5064727;28;20065;-77
2023/05/07 02:49:17;;;;;;;28.88;17.10;;;;;;;16.69;100.00;98859.44;5069490;28;20402;-77
2023/05/07 02:52:01;;;;;;;28.85;17.95;;;;;;;16.73;100.00;98859.00;5063694;28;20142;-77
2023/05/07 02:54:45;;;;;;;29.10;17.52;;;;;;;16.70;100.00;98860.25;5061057;28;20098;-78
2023/05/07 02:57:29;;;;;;;28.15;15.75;;;;;;;16.69;100.00;98866.59;5056523;28;20047;-78
2023/05/07 03:00:16;;;;;;;23.90;14.18;;;;;;;16.67;100.00;98874.78;5063047;28;20047;-77
2023/05/07 03:02:59;;;;;;;26.50;16.23;;;;;;;16.74;100.00;98864.03;5063988;28;20046;-78
2023/05/07 03:05:43;;;;;;;23.48;14.88;;;;;;;16.73;100.00;98869.59;5061807;28;20074;-77
2023/05/07 03:08:27;;;;;;;25.38;15.27;;;;;;;16.76;100.00;98877.06;5061265;28;20079;-78
2023/05/07 03:11:11;;;;;;;28.52;16.92;;;;;;;16.71;100.00;98877.78;5058390;28;20406;-78
2023/05/07 03:13:55;;;;;;;25.27;14.85;;;;;;;16.67;100.00;98871.34;5063101;28;20088;-78
2023/05/07 03:16:40;;;;;;;24.02;14.52;;;;;;;16.73;100.00;98880.19;5060419;28;20055;-78
2023/05/07 03:19:24;;;;;;;25.45;14.52;;;;;;;16.76;100.00;98877.06;5060240;28;20063;-78
2023/05/07 03:22:08;;;;;;;25.45;15.10;;;;;;;16.73;100.00;98885.50;5060983;28;20056;-78
2023/05/07 03:24:52;;;;;;;22.80;13.70;;;;;;;16.78;100.00;98890.88;5058021;28;20086;-78
2023/05/07 03:27:36;;;;;;;25.00;14.70;;;;;;;16.75;100.00;98894.00;5064399;28;20093;-78
2023/05/07 03:30:20;;;;;;;25.70;15.45;;;;;;;16.72;100.00;98876.72;5064931;28;20120;-77
2023/05/07 03:33:04;;;;;;;25.75;15.30;;;;;;;16.76;100.00;98885.00;5060015;28;20101;-78
2023/05/07 03:35:48;;;;;;;23.48;14.73;;;;;;;16.78;100.00;98883.72;5059358;28;20035;-77
2023/05/07 03:38:32;;;;;;;24.20;15.02;;;;;;;16.92;100.00;98886.88;5061253;28;20493;-78
2023/05/07 03:41:16;;;;;;;24.73;14.55;;;;;;;16.87;100.00;98876.19;5055451;28;20517;-79
2023/05/07 03:44:00;;;;;;;24.52;14.38;;;;;;;16.89;100.00;98879.38;5060627;28;20087;-80
2023/05/07 03:46:45;;;;;;;25.23;14.52;;;;;;;16.87;100.00;98881.47;5058442;28;20103;-79
2023/05/07 03:49:29;;;;;;;31.08;17.50;;;;;;;16.78;100.00;98888.22;5058531;28;20074;-78
2023/05/07 03:52:13;;;;;;;27.60;16.40;;;;;;;16.80;100.00;98875.53;5052489;28;20047;-78
2023/05/07 03:54:57;;;;;;;28.83;16.73;;;;;;;16.64;100.00;98883.22;5060842;28;20039;-78
2023/05/07 03:57:41;;;;;;;26.77;15.63;;;;;;;16.51;100.00;98878.22;5058884;28;20067;-78
2023/05/07 04:00:24;;;;;;;30.55;16.33;;;;;;;16.50;100.00;98882.72;5060509;28;20074;-78
2023/05/07 04:03:08;;;;;;;28.20;15.93;;;;;;;16.49;100.00;98880.28;5059374;28;20079;-77
2023/05/07 04:05:52;;;;;;;27.10;15.13;;;;;;;16.62;100.00;98890.59;5056754;28;20090;-77
2023/05/07 04:08:36;;;;;;;24.80;15.25;;;;;;;16.52;100.00;98874.53;5061953;28;20097;-78
2023/05/07 04:11:20;;;;;;;23.33;14.35;;;;;;;16.54;100.00;98881.19;5061740;28;20068;-78
2023/05/07 04:14:04;;;;;;;21.80;13.77;;;;;;;16.70;100.00;98892.06;5057315;28;20047;-78
2023/05/07 04:16:48;;;;;;;21.77;13.48;;;;;;;16.55;100.00;98885.44;5061127;28;20508;-78
2023/05/07 04:19:33;;;;;;;19.45;12.88;;;;;;;16.48;100.00;98878.69;5058154;28;20399;-78
2023/05/07 04:22:17;;;;;;;19.85;13.07;;;;;;;16.54;100.00;98891.78;5055652;28;20537;-78
2023/05/07 04:25:02;;;;;;;17.98;11.70;;;;;;;16.52;100.00;98885.13;5061527;28;20047;-79
2023/05/07 04:27:46;;;;;;;20.35;12.57;;;;;;;16.53;100.00;98889.41;5059416;28;20043;-79
2023/05/07 04:30:30;;;;;;;18.35;12.23;;;;;;;16.51;100.00;98894.13;5054699;28;20120;-78
2023/05/07 04:33:16;;;;;;;20.67;12.98;;;;;;;16.57;100.00;98890.53;5063371;28;20118;-78
2023/05/07 04:36:02;;;;;;;25.35;15.45;;;;;;;16.57;100.00;98893.16;5056682;28;20056;-78
2023/05/07 04:38:47;;;;;;;22.40;14.95;;;;;;;16.62;100.00;98885.31;5061641;28;20102;-79
2023/05/07 04:41:31;;;;;;;25.00;15.55;;;;;;;16.39;100.00;98887.03;5061676;28;20040;-79
2023/05/07 04:44:15;;;;;;;23.77;15.23;;;;;;;16.56;100.00;98892.34;5053546;28;20044;-78
2023/05/07 04:46:58;;;;;;;18.73;12.55;;;;;;;16.56;100.00;98892.34;5057477;28;20497;-79
2023/05/07 04:49:42;;;;;;;19.45;11.93;;;;;;;16.72;100.00;98889.19;5059544;28;20093;-78
2023/05/07 04:52:26;;;;;;;16.63;11.25;;;;;;;16.83;100.00;98891.78;5060101;28;20047;-78
2023/05/07 04:55:10;;;;;;;14.93;8.90;;;;;;;16.90;100.00;98893.47;5059372;28;20260;-79
2023/05/07 04:57:55;;;;;;;11.13;7.80;;;;;;;16.84;100.00;98888.09;5063183;28;20044;-78
2023/05/07 05:00:39;;;;;;;10.27;6.70;;;;;;;16.96;100.00;98895.16;5057219;28;20037;-78
2023/05/07 05:03:23;;;;;;;10.35;6.85;;;;;;;16.98;100.00;98893.06;5063555;28;20097;-79
2023/05/07 05:06:07;;;;;;;7.65;5.55;;;;;;;17.01;100.00;98891.81;5067491;28;20171;-79
2023/05/07 05:08:51;;;;;;;6.35;5.18;;;;;;;16.75;100.00;98891.38;5065890;28;20044;-77
2023/05/07 05:11:35;;;;;;;5.35;4.25;;;;;;;16.82;100.00;98902.59;5058609;28;20131;-77
2023/05/07 05:14:19;;;;;;;5.28;4.50;;;;;;;16.84;100.00;98900.50;5059936;28;20200;-77
2023/05/07 05:17:04;;;;;;;9.65;4.90;;;;;;;17.01;100.00;98891.81;5055251;28;20399;-77
2023/05/07 05:19:48;;;;;;;5.90;4.53;;;;;;;17.16;100.00;98897.38;5064620;28;20039;-77
2023/05/07 05:22:32;;;;;;;6.70;5.03;;;;;;;17.10;100.00;98901.00;5060950;28;20414;-77
2023/05/07 05:25:17;;;;;;;6.25;5.18;;;;;;;17.32;100.00;98913.53;5059540;28;20101;-78
2023/05/07 05:28:01;;;;;;;7.22;5.97;;;;;;;17.07;100.00;98907.56;5064782;28;20094;-78
2023/05/07 05:30:45;;;;;;;8.10;6.47;;;;;;;16.91;100.00;98919.75;5062807;28;20119;-78
2023/05/07 05:33:29;;;;;;;8.50;6.95;;;;;;;17.10;100.00;98914.25;5061634;28;20098;-78
2023/05/07 05:36:13;;;;;;;7.55;5.88;;;;;;;17.13;100.00;98927.81;5058342;28;20083;-78
2023/05/07 05:38:58;;;;;;;8.95;6.13;;;;;;;17.21;100.00;98923.16;5062319;28;20043;-77
2023/05/07 05:41:41;;;;;;;6.20;5.28;;;;;;;17.31;100.00;98930.47;5061170;28;20071;-78
2023/05/07 05:44:25;;;;;;;7.50;5.82;;;;;;;17.30;100.00;98931.53;5065066;28;20107;-78
2023/05/07 05:47:09;;;;;;;8.00;6.05;;;;;;;17.45;100.00;98934.41;5063751;28;20039;-78
2023/05/07 05:49:54;;;;;;;7.63;5.50;;;;;;;17.63;100.00;98929.88;5061859;28;20048;-79
2023/05/07 05:52:38;;;;;;;8.40;6.45;;;;;;;17.73;100.00;98940.66;5063459;28;20051;-77
2023/05/07 05:55:22;;;;;;;9.00;6.72;;;;;;;17.82;100.00;98939.19;5069026;28;20502;-77
2023/05/07 05:58:06;;;;;;;9.15;7.57;;;;;;;17.89;100.00;98949.63;5064337;28;20051;-77
2023/05/07 06:00:52;;;;;;;10.35;8.35;;;;;;;17.80;100.00;98949.25;5065920;28;20094;-79
2023/05/07 06:03:36;;;;;;;12.07;8.23;;;;;;;17.84;100.00;98946.91;5063328;28;20167;-79
2023/05/07 06:06:20;;;;;;;10.07;8.43;;;;;;;18.00;100.00;98937.28;5055295;28;20194;-78
2023/05/07 06:09:04;;;;;;;10.52;7.93;;;;;;;17.95;100.00;98947.84;5055695;28;20090;-80
2023/05/07 06:11:48;;;;;;;12.60;10.10;;;;;;;18.04;100.00;98953.56;5061354;28;20047;-77
2023/05/07 06:14:32;;;;;;;13.73;10.02;;;;;;;18.27;100.00;98955.16;5059518;28;20075;-79
2023/05/07 06:17:16;;;;;;;17.88;11.80;;;;;;;18.23;100.00;98967.34;5061568;28;20040;-81
2023/05/07 06:20:00;;;;;;;18.17;12.48;;;;;;;17.83;100.00;98964.69;5063020;28;20100;-81
2023/05/07 06:22:44;;;;;;;17.17;13.20;;;;;;;18.18;100.00;98967.28;5061468;28;20509;-81
2023/05/07 06:25:28;;;;;;;15.73;12.27;;;;;;;18.09;100.00;98965.06;5062549;28;20514;-83
2023/05/07 06:28:12;;;;;;;18.08;12.18;;;;;;;18.15;100.00;98967.78;5059928;28;20118;-84
2023/05/07 06:31:10;;;;;;;14.48;11.23;;;;;;;18.34;100.00;98963.78;5057868;28;20482;-82
2023/05/07 06:33:55;;;;;;;11.30;9.98;;;;;;;18.47;100.00;98962.59;5063643;28;20048;-82
2023/05/07 06:36:39;;;;;;;12.77;10.57;;;;;;;18.59;100.00;98961.66;5064640;28;20403;-82
2023/05/07 06:39:24;;;;;;;13.15;9.82;;;;;;;18.65;100.00;98965.97;5059046;28;20053;-81
2023/05/07 06:42:08;;;;;;;11.48;9.48;;;;;;;18.67;100.00;98967.34;5062775;28;20055;-83
2023/05/07 06:44:52;;;;;;;12.32;10.50;;;;;;;18.71;100.00;98980.91;5064256;28;20052;-83
2023/05/07 06:47:36;;;;;;;12.52;9.88;;;;;;;18.81;100.00;98969.59;5064758;28;20525;-82
2023/05/07 06:50:20;;;;;;;11.77;9.35;;;;;;;19.29;100.00;98985.75;5058470;28;20513;-83
2023/05/07 06:53:04;;;;;;;10.88;9.07;;;;;;;19.29;100.00;98979.66;5065746;28;20090;-82
2023/05/07 06:55:48;;;;;;;9.73;8.57;;;;;;;19.41;100.00;98981.06;5060662;28;20060;-82
2023/05/07 06:58:32;;;;;;;12.68;8.77;;;;;;;19.65;100.00;98982.56;5062315;28;20074;-83
2023/05/07 07:01:16;;;;;;;12.85;11.15;;;;;;;19.57;100.00;98991.03;5062448;28;20043;-82
2023/05/07 07:04:00;;;;;;;15.57;11.45;;;;;;;19.97;100.00;98992.38;5062568;28;20548;-83
2023/05/07 07:06:45;;;;;;;15.20;11.90;;;;;;;19.48;100.00;99002.16;5058332;28;20043;-82
2023/05/07 07:09:29;;;;;;;14.50;11.23;;;;;;;19.63;100.00;99003.31;5058159;28;20044;-83
2023/05/07 07:12:13;;;;;;;13.15;10.25;;;;;;;19.87;100.00;99011.75;5060973;28;20509;-83
2023/05/07 07:14:57;;;;;;;14.63;10.45;;;;;;;19.58;100.00;99011.25;5061427;28;20544;-86
2023/05/07 07:17:41;;;;;;;13.63;10.25;;;;;;;19.81;100.00;99012.78;5064689;28;20094;-84
2023/05/07 07:20:25;;;;;;;11.90;10.52;;;;;;;19.86;100.00;99006.69;5057561;28;20111;-83
2023/05/07 07:23:09;;;;;;;13.65;10.20;;;;;;;19.46;100.00;99022.09;5069993;28;20051;-81
2023/05/07 07:25:53;;;;;;;14.68;11.23;;;;;;;18.93;100.00;99015.47;5057941;28;20052;-83
2023/05/07 07:28:46;;;;;;;15.20;10.23;;;;;;;18.94;100.00;99017.06;5062152;28;20056;-83
2023/05/07 07:31:31;;;;;;;12.82;10.23;;;;;;;18.68;100.00;99014.16;5063426;28;20469;-82
2023/05/07 07:34:15;;;;;;;13.68;10.38;;;;;;;19.18;100.00;99008.81;5061324;28;20083;-82
2023/05/07 07:37:05;;;;;;;14.40;9.85;;;;;;;18.90;100.00;99015.97;5055631;28;20214;-81
2023/05/07 07:39:49;;;;;;;12.40;9.57;;;;;;;19.16;100.00;99018.91;5063788;28;20101;-83
2023/05/07 07:42:32;;;;;;;11.55;9.23;;;;;;;19.10;100.00;99019.91;5073033;28;20089;-79
2023/05/07 07:45:16;;;;;;;12.75;9.13;;;;;;;19.31;100.00;99023.56;5062546;28;20067;-77
2023/05/07 07:48:00;;;;;;;11.60;9.27;;;;;;;19.34;100.00;99031.03;5059092;28;20051;-78
2023/05/07 07:50:44;;;;;;;12.55;10.13;;;;;;;19.20;100.00;99037.84;5063354;28;20115;-78
2023/05/07 07:53:29;;;;;;;15.35;10.38;;;;;;;19.36;100.00;99031.59;5059994;28;20094;-78
2023/05/07 07:56:13;;;;;;;13.38;9.98;;;;;;;19.52;100.00;99043.19;5053584;28;20103;-78
2023/05/07 07:58:57;;;;;;;13.70;10.27;;;;;;;19.36;100.00;99028.13;5058545;28;20371;-79
2023/05/07 08:01:41;;;;;;;12.15;9.10;;;;;;;19.52;100.00;99035.19;5060485;28;20075;-79
2023/05/07 08:04:25;;;;;;;11.65;8.85;;;;;;;19.20;100.00;99037.84;5057756;28;20052;-78
2023/05/07 08:07:10;;;;;;;10.02;8.52;;;;;;;19.74;100.00;99028.97;5054923;28;20048;-81
2023/05/07 08:09:54;;;;;;;9.60;7.75;;;;;;;20.02;100.00;99027.03;5062146;28;20536;-76
2023/05/07 08:12:38;;;;;;;10.80;7.80;;;;;;;20.50;100.00;99023.56;5065023;28;20525;-79
2023/05/07 08:15:22;;;;;;;9.98;7.85;;;;;;;20.72;100.00;99036.69;5057848;28;20102;-78
2023/05/07 08:18:06;;;;;;;9.25;7.15;;;;;;;20.06;100.00;99033.47;5058419;28;20076;-78
2023/05/07 08:20:50;;;;;;;8.73;7.13;;;;;;;20.65;100.00;99031.63;5062687;28;20513;-79
2023/05/07 08:23:34;;;;;;;11.35;8.15;;;;;;;21.06;100.00;99032.81;5064415;28;20163;-79
2023/05/07 08:26:20;;;;;;;8.18;7.15;;;;;;;20.98;100.00;99029.59;5057319;28;20106;-78
2023/05/07 08:29:04;;;;;;;9.80;7.18;;;;;;;21.38;100.00;99040.59;5057900;28;20071;-78
2023/05/07 08:31:48;;;;;;;8.65;7.18;;;;;;;21.15;100.00;99041.13;5058522;28;20044;-75
2023/05/07 08:34:31;;;;;;;10.63;7.15;;;;;;;21.22;100.00;99050.47;5058597;28;20044;-74
2023/05/07 08:37:16;;;;;;;6.25;5.60;;;;;;;21.59;100.00;99047.81;5058129;28;20043;-75
2023/05/07 08:40:00;;;;;;;6.25;5.55;;;;;;;21.59;100.00;99053.97;5063993;28;20044;-78
2023/05/07 08:42:45;;;;;;;6.68;4.88;;;;;;;21.91;100.00;99052.09;5064322;28;20122;-78
2023/05/07 08:45:32;;;;;;;6.75;5.20;;;;;;;22.52;100.00;99053.03;5068333;28;20043;-78
2023/05/07 08:48:17;;;;;;;6.45;5.55;;;;;;;22.44;97.87;99053.59;5064543;28;20130;-78
2023/05/07 08:51:01;;;;;;;5.70;5.03;;;;;;;22.37;97.66;99057.31;5064567;28;20085;-78
2023/05/07 08:53:48;;;;;;;7.00;5.03;;;;;;;21.64;97.94;99045.16;5061110;28;20516;-78
2023/05/07 08:56:32;;;;;;;6.80;5.70;;;;;;;22.02;98.35;99045.69;5063836;28;20469;-76
2023/05/07 08:59:16;;;;;;;7.22;5.95;;;;;;;22.02;96.90;99053.69;5064548;28;20055;-75
2023/05/07 09:02:00;;;;;;;7.00;6.30;;;;;;;22.04;97.00;99048.88;5058155;28;20556;-75
2023/05/07 09:04:45;;;;;;;8.43;6.97;;;;;;;21.36;100.00;99065.94;5061111;28;20036;-80
2023/05/07 09:07:30;;;;;;;8.25;6.57;;;;;;;21.94;97.58;99056.91;5060749;28;20043;-79
2023/05/07 09:10:14;;;;;;;9.07;6.88;;;;;;;21.66;99.06;99051.84;5066373;28;20425;-79
2023/05/07 09:12:58;;;;;;;7.68;6.40;;;;;;;22.37;97.48;99059.22;5064957;28;20075;-82
2023/05/07 09:15:42;;;;;;;8.40;7.15;;;;;;;22.10;96.87;99058.47;5064771;28;21127;-79
2023/05/07 09:18:26;;;;;;;9.40;7.25;;;;;;;21.91;98.28;99060.13;5062138;28;20047;-82
2023/05/07 09:21:23;;;;;;;11.85;8.07;;;;;;;21.46;99.03;99073.16;5061771;28;20079;-80
2023/05/07 09:24:07;;;;;;;9.52;7.55;;;;;;;21.65;98.87;99079.63;5066397;28;20098;-80
2023/05/07 09:26:51;;;;;;;9.52;7.55;;;;;;;21.40;99.48;99080.38;5064224;28;20552;-79
2023/05/07 09:29:38;;;;;;;7.30;6.55;;;;;;;22.21;96.62;99075.28;5068612;28;20098;-79
2023/05/07 09:32:22;;;;;;;8.35;6.28;;;;;;;22.58;95.85;99073.34;5061143;28;20112;-80
2023/05/07 09:35:15;;;;;;;9.30;6.32;;;;;;;23.12;94.25;99081.66;5065719;28;20083;-80
2023/05/07 09:38:01;;;;;;;12.30;8.40;;;;;;;23.27;93.86;99082.66;5061036;28;20074;-80
2023/05/07 09:40:45;;;;;;;13.18;8.52;;;;;;;23.56;92.66;99092.63;5066272;28;20331;-80
2023/05/07 09:43:35;;;;;;;11.68;7.05;;;;;;;23.19;91.40;99084.84;5066551;28;20052;-80
2023/05/07 09:46:30;;;;;;;8.82;7.00;;;;;;;22.72;93.79;99091.47;5059976;28;20044;-79
2023/05/07 09:49:23;;;;;;;11.95;8.13;;;;;;;22.87;92.66;99104.78;5062599;28;20048;-80
2023/05/07 09:52:08;;;;;;;10.52;7.15;;;;;;;22.37;94.32;99097.44;5060209;28;20054;-84
2023/05/07 09:54:53;;;;;;;8.38;6.63;;;;;;;22.65;92.02;99110.50;5061028;28;20079;-84
2023/05/07 09:57:38;;;;;;;9.77;6.38;;;;;;;23.12;91.59;99095.03;5061854;28;20044;-84
2023/05/07 10:00:22;;;;;;;8.32;6.03;;;;;;;23.04;89.45;99095.63;5065209;28;20051;-84
2023/05/07 10:03:09;;;;;;;9.00;5.72;;;;;;;23.03;88.17;99110.09;5062143;28;20075;-84
2023/05/07 10:05:54;;;;;;;9.50;6.25;;;;;;;22.80;90.06;99117.69;5063548;28;20039;-85
2023/05/07 10:08:38;;;;;;;7.88;5.78;;;;;;;23.06;90.16;99104.97;5060871;28;20098;-86
2023/05/07 10:11:22;;;;;;;6.97;5.90;;;;;;;22.94;89.56;99113.31;5061380;28;20040;-87
2023/05/07 10:14:07;;;;;;;7.30;5.55;;;;;;;23.16;89.08;99104.09;5058661;28;20178;-86
2023/05/07 10:16:53;;;;;;;8.10;6.00;;;;;;;22.65;89.94;99113.16;5058988;28;20048;-86
2023/05/07 10:19:37;;;;;;;8.27;5.93;;;;;;;22.59;87.97;99123.09;5063335;28;20092;-87
2023/05/07 10:22:22;;;;;;;8.75;6.28;;;;;;;22.54;89.26;99123.09;5063065;28;20135;-84
2023/05/07 10:25:28;;;;;;;7.35;6.30;;;;;;;22.04;92.63;99129.06;5064522;28;20040;-83
2023/05/07 10:28:13;;;;;;;8.73;6.30;;;;;;;22.62;91.92;99117.22;5063800;28;20132;-85
2023/05/07 10:31:34;;;;;;;9.30;6.68;;;;;;;22.55;88.97;99114.00;5065648;28;20043;-83
2023/05/07 10:34:24;;;;;;;8.88;6.40;;;;;;;21.83;93.62;99129.06;5060456;28;20047;-86
2023/05/07 10:37:10;;;;;;;11.13;6.93;;;;;;;21.29;93.58;99127.59;5057917;28;20051;-85
2023/05/07 10:39:54;;;;;;;7.40;6.50;;;;;;;21.24;94.01;99128.41;5063357;28;20051;-85
2023/05/07 10:42:39;;;;;;;9.23;7.03;;;;;;;20.96;95.06;99124.31;5061586;28;20059;-85
2023/05/07 10:45:23;;;;;;;12.40;6.70;;;;;;;20.90;95.27;99138.69;5062165;28;20533;-83
2023/05/07 10:48:08;;;;;;;8.63;6.43;;;;;;;21.04;94.87;99133.69;5061279;28;20078;-84
2023/05/07 10:51:18;;;;;;;8.57;7.07;;;;;;;20.50;95.86;99148.88;5062521;28;20455;-83
2023/05/07 10:54:12;;;;;;;8.52;6.35;;;;;;;21.14;93.81;99144.38;5057632;28;20055;-83
2023/05/07 10:56:56;;;;;;;9.65;6.85;;;;;;;21.06;93.35;99150.25;5064067;28;20501;-84
2023/05/07 10:59:43;;;;;;;8.90;6.10;;;;;;;21.50;92.32;99146.34;5060202;28;20502;-84
2023/05/07 11:03:02;;;;;;;11.23;6.85;;;;;;;21.50;92.47;99152.50;5059998;28;20044;-84
2023/05/07 11:05:47;;;;;;;10.65;6.68;;;;;;;22.08;90.56;99158.69;5062643;28;20043;-84
2023/05/07 11:08:56;;;;;;;9.63;6.25;;;;;;;22.29;89.74;99162.19;5062470;28;20043;-82
2023/05/07 11:11:47;;;;;;;7.90;5.75;;;;;;;22.16;88.38;99160.03;5056976;28;20564;-82
2023/05/07 11:14:51;;;;;;;7.80;5.72;;;;;;;22.17;88.36;99159.78;5053504;28;20067;-83
2023/05/07 11:17:53;;;;;;;8.48;5.47;;;;;;;22.28;86.55;99155.22;5060901;28;20167;-86
2023/05/07 11:20:55;;;;;;;5.63;4.60;;;;;;;22.46;87.91;99161.09;5062179;28;20047;-83
2023/05/07 11:23:40;;;;;;;8.40;4.75;;;;;;;22.68;84.61;99158.09;5062708;28;20044;-84
2023/05/07 11:26:25;;;;;;;10.00;5.53;;;;;;;22.27;86.08;99164.31;5057872;28;20414;-84
2023/05/07 11:29:14;;;;;;;7.32;5.45;;;;;;;21.71;86.07;99181.13;5056675;28;20044;-83
2023/05/07 11:32:00;;;;;;;8.48;4.95;;;;;;;21.55;85.91;99178.41;5060974;28;20110;-85
2023/05/07 11:34:45;;;;;;;7.75;5.22;;;;;;;21.87;86.15;99171.28;5059573;28;20055;-85
2023/05/07 11:37:30;;;;;;;8.85;4.88;;;;;;;22.22;86.03;99167.00;5057476;28;20167;-84
2023/05/07 11:40:14;;;;;;;6.28;4.40;;;;;;;22.29;86.52;99178.22;5062979;28;20044;-85
2023/05/07 11:42:58;;;;;;;9.32;5.40;;;;;;;21.72;86.06;99180.88;5058382;28;20089;-85
2023/05/07 11:45:42;;;;;;;;;;;;;;;21.61;86.16;99173.88;5057011;28;20064;-83
2023/05/07 11:48:26;;;;;;;6.97;4.60;;;;;;;21.71;87.04;99184.59;5057189;28;19970;-86
2023/05/07 11:51:11;;;;;;;;;;;;;;;21.11;88.29;99172.38;5058520;28;20040;-82
2023/05/07 11:53:56;;;;;;;7.45;4.38;;;;;;;21.10;87.80;99173.47;5062275;28;19935;-82
2023/05/07 11:56:39;;;;;;;8.55;4.53;;;;;;;21.22;88.71;99167.09;5057146;28;20130;-84
2023/05/07 11:59:24;;;;;;;6.07;3.85;;;;;;;20.79;89.02;99172.47;5057408;28;20067;-84
2023/05/07 12:02:08;;;;;;;7.22;4.10;;;;;;;20.86;87.91;99170.44;5053644;28;20148;-84
2023/05/07 12:04:53;;;;;;;6.45;4.20;;;;;;;21.05;89.63;99178.00;5054094;28;20048;-80
2023/05/07 12:07:37;;;;;;;7.63;4.00;;;;;;;21.03;88.16;99172.09;5057563;28;20067;-82
2023/05/07 12:10:21;;;;;;;8.10;4.18;;;;;;;20.97;87.95;99177.41;5062819;28;20090;-82
2023/05/07 12:13:19;;;;;;;8.27;3.80;;;;;;;20.43;86.19;99174.94;5058070;28;20459;-85
2023/05/07 12:16:05;;;;;;;6.15;3.85;;;;;;;20.90;85.92;99178.69;5060062;28;20039;-84
2023/05/07 12:18:50;;;;;;;7.05;3.75;;;;;;;21.01;84.42;99177.69;5059760;28;20036;-83
2023/05/07 12:21:35;;;;;;;7.70;3.35;;;;;;;21.08;86.34;99172.13;5059300;28;20064;-83
2023/05/07 12:24:19;;;;;;;4.53;3.67;;;;;;;21.69;84.05;99186.75;5061397;28;20047;-84
2023/05/07 12:27:06;;;;;;;6.72;3.30;;;;;;;21.66;82.44;99187.28;5061292;28;20519;-83
2023/05/07 12:29:53;;;;;;;5.95;3.30;;;;;;;22.05;83.62;99188.66;5058214;28;20047;-84
2023/05/07 12:32:37;;;;;;;4.13;3.67;;;;;;;22.21;82.90;99197.47;5056380;28;20087;-82
2023/05/07 12:35:31;;;;;;;6.60;4.20;;;;;;;21.98;82.44;99170.19;5063961;28;20394;-82
2023/05/07 12:38:17;;;;;;;7.35;3.75;;;;;;;22.30;82.46;99184.34;5056347;28;20048;-81
2023/05/07 12:41:02;;;;;;;7.78;3.50;;;;;;;22.64;81.84;99189.16;5058051;28;20043;-82
2023/05/07 12:43:46;;;;;;;7.60;3.83;;;;;;;22.64;79.97;99192.63;5060883;28;20043;-80